Time;durP1;ratioP1;P1;durP2;ratioP2;P2;SDS_P1;SDS_P2;PMS_P1;PMS_P2;Temp;Humidity;BMP_temperature;BMP_pressure;BME280_temperature;BME280_humidity;BME280_pressure;Samples;Min_cycle;Max_cycle;Signal;HPM_P1;HPM_P2
2023/08/15 00:00:38;;;;;;;1.27;1.25;;;;;21.40;96009.00;;;;5137284;27;20246;-61
2023/08/15 00:03:06;;;;;;;1.23;1.17;;;;;21.40;96008.00;;;;5136944;27;20186;-61
2023/08/15 00:05:33;;;;;;;1.20;1.20;;;;;21.40;96009.00;;;;5136845;27;20652;-62
2023/08/15 00:08:01;;;;;;;0.90;0.90;;;;;21.40;96008.00;;;;5137380;27;20200;-62
2023/08/15 00:10:30;;;;;;;1.40;1.30;;;;;21.40;96001.00;;;;5136790;27;20192;-62
2023/08/15 00:12:57;;;;;;;1.27;1.17;;;;;21.20;95995.00;;;;5136874;27;20186;-62
2023/08/15 00:15:24;;;;;;;1.50;1.40;;;;;21.10;95998.00;;;;5136728;27;20213;-62
2023/08/15 00:17:52;;;;;;;0.63;0.63;;;;;21.10;95999.00;;;;5137055;27;20603;-62
2023/08/15 00:20:19;;;;;;;1.15;1.13;;;;;21.10;95993.00;;;;5135382;27;20205;-62
2023/08/15 00:22:47;;;;;;;1.17;1.13;;;;;21.10;95989.00;;;;5136887;27;20211;-62
2023/08/15 00:25:14;;;;;;;0.77;0.77;;;;;21.00;95988.00;;;;5136655;27;20640;-61
2023/08/15 00:27:43;;;;;;;1.42;1.33;;;;;20.90;95986.00;;;;5136470;27;20581;-61
2023/08/15 00:30:11;;;;;;;3.10;1.02;;;;;20.80;95984.00;;;;5136461;27;20189;-62
2023/08/15 00:32:39;;;;;;;0.93;0.93;;;;;20.90;95979.00;;;;5136727;27;20193;-62
2023/08/15 00:35:07;;;;;;;1.25;1.17;;;;;20.90;95976.00;;;;5136406;27;20258;-62
2023/08/15 00:37:34;;;;;;;1.38;1.27;;;;;20.80;95984.00;;;;5136285;27;20273;-61
2023/08/15 00:40:02;;;;;;;1.77;1.67;;;;;20.90;95991.00;;;;5136355;27;20238;-62
2023/08/15 00:42:29;;;;;;;1.45;1.35;;;;;20.80;95977.00;;;;5136593;27;20530;-62
2023/08/15 00:44:58;;;;;;;1.23;1.20;;;;;20.80;95981.00;;;;5136444;27;20185;-61
2023/08/15 00:47:26;;;;;;;0.90;0.90;;;;;20.70;95976.00;;;;5136196;27;20213;-60
2023/08/15 00:49:55;;;;;;;1.75;1.65;;;;;20.60;95973.00;;;;5136445;27;20266;-61
2023/08/15 00:52:22;;;;;;;1.35;1.25;;;;;20.70;95977.00;;;;5136421;27;20197;-61
2023/08/15 00:54:52;;;;;;;1.27;1.17;;;;;20.60;95964.00;;;;5136177;27;20606;-61
2023/08/15 00:57:20;;;;;;;1.20;1.17;;;;;20.70;95970.00;;;;5135927;27;20224;-62
2023/08/15 00:59:48;;;;;;;0.88;0.88;;;;;20.30;95978.00;;;;5135883;27;20584;-61
2023/08/15 01:02:17;;;;;;;1.48;1.25;;;;;20.30;95976.00;;;;5136411;27;20198;-61
2023/08/15 01:04:44;;;;;;;1.63;1.45;;;;;20.30;95976.00;;;;5136161;27;20276;-62
2023/08/15 01:07:12;;;;;;;0.85;0.85;;;;;20.30;95979.00;;;;5135739;27;20209;-62
2023/08/15 01:09:39;;;;;;;1.38;1.33;;;;;20.40;95967.00;;;;5135974;27;20607;-61
2023/08/15 01:12:21;;;;;;;1.05;1.05;;;;;20.50;95974.00;;;;5135950;27;20193;-61
2023/08/15 01:14:55;;;;;;;0.80;0.80;;;;;20.60;95970.00;;;;5135868;27;20610;-61
2023/08/15 01:17:32;;;;;;;2.10;1.53;;;;;20.50;95967.00;;;;5135891;27;20209;-61
2023/08/15 01:20:07;;;;;;;1.53;1.43;;;;;20.50;95972.00;;;;5135677;27;20700;-61
2023/08/15 01:22:37;;;;;;;1.08;1.08;;;;;20.50;95976.00;;;;5135587;27;20180;-61
2023/08/15 01:25:07;;;;;;;9.85;1.23;;;;;20.40;95974.00;;;;5136102;27;20178;-62
2023/08/15 01:27:34;;;;;;;0.70;0.70;;;;;20.30;95980.00;;;;5135154;27;20209;-62
2023/08/15 01:30:02;;;;;;;1.03;1.00;;;;;20.40;95979.00;;;;5135330;27;20713;-61
2023/08/15 01:32:36;;;;;;;0.70;0.70;;;;;20.40;95971.00;;;;5135232;27;20224;-62
2023/08/15 01:35:12;;;;;;;1.57;1.47;;;;;20.40;95965.00;;;;5135266;27;20268;-62
2023/08/15 01:37:43;;;;;;;1.47;1.40;;;;;20.40;95960.00;;;;5135378;27;20216;-62
2023/08/15 01:40:16;;;;;;;1.95;1.42;;;;;20.40;95962.00;;;;5135853;27;20181;-61
2023/08/15 01:42:45;;;;;;;1.15;1.10;;;;;20.30;95963.00;;;;5135591;27;20186;-61
2023/08/15 01:45:14;;;;;;;1.27;1.15;;;;;20.40;95959.00;;;;5135106;27;20197;-60
2023/08/15 01:47:41;;;;;;;1.02;1.02;;;;;20.50;95958.00;;;;5135205;27;20220;-61
2023/08/15 01:50:09;;;;;;;0.70;0.70;;;;;20.50;95959.00;;;;5135281;27;20648;-62
2023/08/15 01:52:37;;;;;;;1.48;1.40;;;;;20.50;95955.00;;;;5134866;27;20560;-61
2023/08/15 01:55:05;;;;;;;1.23;0.98;;;;;20.50;95955.00;;;;5134710;27;20542;-62
2023/08/15 01:57:34;;;;;;;1.50;1.40;;;;;20.40;95954.00;;;;5134839;27;20217;-62
2023/08/15 02:00:01;;;;;;;1.03;1.03;;;;;20.40;95954.00;;;;5133483;27;20203;-62
2023/08/15 02:02:28;;;;;;;1.00;1.00;;;;;20.30;95954.00;;;;5134610;27;20185;-62
2023/08/15 02:04:58;;;;;;;0.93;0.93;;;;;20.40;95952.00;;;;5134492;27;20193;-61
2023/08/15 02:07:25;;;;;;;0.85;0.85;;;;;20.40;95953.00;;;;5134657;27;20213;-61
2023/08/15 02:09:54;;;;;;;1.00;1.00;;;;;20.50;95962.00;;;;5134732;27;20236;-61
2023/08/15 02:12:21;;;;;;;1.15;1.15;;;;;20.50;95958.00;;;;5134756;27;20189;-61
2023/08/15 02:14:50;;;;;;;1.23;1.23;;;;;20.30;95960.00;;;;5134576;27;20202;-61
2023/08/15 02:17:18;;;;;;;1.42;1.33;;;;;20.20;95954.00;;;;5134631;27;20232;-61
2023/08/15 02:19:45;;;;;;;1.77;1.63;;;;;20.40;95952.00;;;;5134419;27;20242;-61
2023/08/15 02:22:12;;;;;;;2.47;1.07;;;;;20.40;95949.00;;;;5134322;27;20193;-62
2023/08/15 02:24:40;;;;;;;1.10;1.10;;;;;20.40;95949.00;;;;5134608;27;20193;-62
2023/08/15 02:27:07;;;;;;;1.47;1.37;;;;;20.50;95945.00;;;;5134218;27;20576;-61
2023/08/15 02:29:35;;;;;;;0.97;0.97;;;;;20.40;95941.00;;;;5134231;27;20593;-61
2023/08/15 02:32:04;;;;;;;0.70;0.70;;;;;19.90;95954.00;;;;5134177;27;20189;-61
2023/08/15 02:34:31;;;;;;;0.80;0.80;;;;;19.60;95961.00;;;;5134519;27;20196;-61
2023/08/15 02:36:59;;;;;;;1.00;1.00;;;;;19.70;95955.00;;;;5134047;27;20213;-61
2023/08/15 02:39:26;;;;;;;0.70;0.70;;;;;19.80;95949.00;;;;5134258;28;20189;-62
2023/08/15 02:41:53;;;;;;;0.97;0.97;;;;;20.00;95965.00;;;;5133568;27;20212;-62
2023/08/15 02:44:21;;;;;;;1.00;1.00;;;;;20.10;95960.00;;;;5133860;27;20189;-62
2023/08/15 02:46:48;;;;;;;1.30;1.25;;;;;20.10;95966.00;;;;5134126;28;20540;-62
2023/08/15 02:49:17;;;;;;;4.32;1.58;;;;;20.20;95962.00;;;;5133962;28;20196;-61
2023/08/15 02:51:44;;;;;;;1.00;1.00;;;;;20.20;95951.00;;;;5134036;28;20193;-62
2023/08/15 02:54:12;;;;;;;1.07;1.07;;;;;20.30;95946.00;;;;5134038;28;20189;-62
2023/08/15 02:56:39;;;;;;;0.90;0.90;;;;;20.30;95953.00;;;;5133840;28;20221;-62
2023/08/15 02:59:06;;;;;;;1.30;1.20;;;;;20.30;95960.00;;;;5132589;28;20197;-62
2023/08/15 03:01:34;;;;;;;1.20;1.20;;;;;20.30;95955.00;;;;5134138;28;20197;-61
2023/08/15 03:04:01;;;;;;;1.58;1.48;;;;;20.20;95944.00;;;;5134251;28;20208;-61
2023/08/15 03:06:30;;;;;;;1.20;1.17;;;;;20.10;95949.00;;;;5134158;28;20205;-62
2023/08/15 03:08:58;;;;;;;1.40;1.30;;;;;20.20;95944.00;;;;5133916;28;20192;-61
2023/08/15 03:11:25;;;;;;;0.80;0.80;;;;;20.20;95938.00;;;;5133754;28;20185;-61
2023/08/15 03:13:54;;;;;;;1.13;1.13;;;;;20.10;95942.00;;;;5133848;28;20197;-61
2023/08/15 03:16:21;;;;;;;0.80;0.80;;;;;20.00;95947.00;;;;5133738;28;20225;-61
2023/08/15 03:18:48;;;;;;;0.90;0.90;;;;;20.00;95952.00;;;;5133684;28;20192;-60
2023/08/15 03:21:16;;;;;;;0.60;0.60;;;;;20.00;95941.00;;;;5133730;28;20186;-60
2023/08/15 03:23:45;;;;;;;1.00;1.00;;;;;19.90;95938.00;;;;5133764;28;20663;-61
2023/08/15 03:26:12;;;;;;;0.70;0.70;;;;;19.90;95938.00;;;;5133628;28;20216;-61
2023/08/15 03:28:39;;;;;;;1.00;1.00;;;;;20.00;95939.00;;;;5133783;28;20269;-61
2023/08/15 03:31:08;;;;;;;1.50;1.40;;;;;19.90;95944.00;;;;5133714;28;20201;-61
2023/08/15 03:33:36;;;;;;;0.93;0.93;;;;;19.90;95948.00;;;;5133622;28;20197;-61
2023/08/15 03:36:04;;;;;;;0.60;0.60;;;;;19.80;95945.00;;;;5133513;28;20221;-61
2023/08/15 03:38:32;;;;;;;1.30;1.30;;;;;19.80;95943.00;;;;5133542;28;20190;-61
2023/08/15 03:41:04;;;;;;;1.00;1.00;;;;;19.80;95944.00;;;;5133522;28;20194;-61
2023/08/15 03:43:32;;;;;;;0.97;0.97;;;;;19.80;95943.00;;;;5133509;28;20189;-62
2023/08/15 03:46:00;;;;;;;0.97;0.97;;;;;19.90;95948.00;;;;5133409;28;20213;-60
2023/08/15 03:48:29;;;;;;;1.23;1.13;;;;;19.80;95949.00;;;;5133619;28;20190;-60
2023/08/15 03:50:58;;;;;;;1.90;1.73;;;;;19.70;95947.00;;;;5133462;28;20199;-60
2023/08/15 03:53:26;;;;;;;1.23;1.23;;;;;19.70;95943.00;;;;5134042;27;20604;-61
2023/08/15 03:55:54;;;;;;;0.97;0.97;;;;;19.70;95947.00;;;;5136971;27;20704;-61
2023/08/15 03:58:24;;;;;;;1.13;1.10;;;;;19.80;95956.00;;;;5138165;27;20228;-61
2023/08/15 04:00:52;;;;;;;1.70;1.60;;;;;19.80;95956.00;;;;5138255;27;20194;-60
2023/08/15 04:03:19;;;;;;;1.40;1.30;;;;;19.80;95955.00;;;;5135856;27;20193;-60
2023/08/15 04:05:48;;;;;;;1.23;1.23;;;;;19.70;95964.00;;;;5135725;27;20190;-61
2023/08/15 04:08:16;;;;;;;1.93;1.83;;;;;19.60;95976.00;;;;5136928;27;20246;-61
2023/08/15 04:10:46;;;;;;;1.20;1.20;;;;;19.60;95985.00;;;;5136809;27;20189;-60
2023/08/15 04:13:14;;;;;;;1.20;1.20;;;;;19.50;95986.00;;;;5136793;27;20585;-60
2023/08/15 04:15:43;;;;;;;1.00;1.00;;;;;19.40;95993.00;;;;5137262;27;20217;-60
2023/08/15 04:18:11;;;;;;;1.93;1.83;;;;;19.50;95992.00;;;;5136630;27;20200;-60
2023/08/15 04:20:38;;;;;;;5.97;0.90;;;;;19.40;95992.00;;;;5136764;27;20190;-59
2023/08/15 04:23:06;;;;;;;1.63;1.53;;;;;19.40;95997.00;;;;5136622;27;20185;-59
2023/08/15 04:25:34;;;;;;;1.87;1.70;;;;;19.40;95998.00;;;;5136582;27;20258;-59
2023/08/15 04:28:02;;;;;;;1.20;1.20;;;;;19.40;96003.00;;;;5136588;27;20197;-60
2023/08/15 04:30:31;;;;;;;2.27;1.27;;;;;19.40;95994.00;;;;5136592;27;20721;-60
2023/08/15 04:33:00;;;;;;;1.40;1.30;;;;;19.50;95993.00;;;;5136755;27;20246;-60
2023/08/15 04:35:28;;;;;;;1.23;1.00;;;;;19.50;95994.00;;;;5136450;27;20224;-60
2023/08/15 04:37:55;;;;;;;1.00;1.00;;;;;19.50;96000.00;;;;5136345;27;20216;-61
2023/08/15 04:40:31;;;;;;;1.20;1.20;;;;;19.50;95998.00;;;;5136565;27;20185;-61
2023/08/15 04:42:59;;;;;;;0.70;0.70;;;;;19.60;96005.00;;;;5136656;27;20243;-62
2023/08/15 04:45:27;;;;;;;1.50;1.43;;;;;19.50;96008.00;;;;5136296;27;20186;-62
2023/08/15 04:47:54;;;;;;;1.17;1.17;;;;;19.50;96013.00;;;;5136112;27;20286;-62
2023/08/15 04:50:23;;;;;;;0.87;0.87;;;;;19.60;96018.00;;;;5136261;27;20773;-61
2023/08/15 04:52:51;;;;;;;2.07;1.83;;;;;19.50;96019.00;;;;5136455;27;20196;-62
2023/08/15 04:55:18;;;;;;;1.87;1.77;;;;;19.60;96022.00;;;;5134938;27;20539;-61
2023/08/15 04:57:46;;;;;;;1.63;1.53;;;;;19.60;96022.00;;;;5134769;27;20699;-61
2023/08/15 05:00:15;;;;;;;1.00;1.00;;;;;19.60;96021.00;;;;5135940;27;20664;-61
2023/08/15 05:02:43;;;;;;;1.50;1.40;;;;;19.70;96029.00;;;;5135893;27;20189;-61
2023/08/15 05:05:10;;;;;;;0.80;0.80;;;;;19.80;96030.00;;;;5135049;27;20288;-63
2023/08/15 05:07:40;;;;;;;0.80;0.80;;;;;19.80;96019.00;;;;5135935;27;20205;-62
2023/08/15 05:10:09;;;;;;;1.10;1.10;;;;;19.80;96026.00;;;;5135612;27;20225;-62
2023/08/15 05:12:36;;;;;;;1.13;1.13;;;;;19.80;96031.00;;;;5136038;27;20189;-61
2023/08/15 05:15:07;;;;;;;4.20;1.90;;;;;19.90;96032.00;;;;5134627;27;20236;-61
2023/08/15 05:17:35;;;;;;;12.73;1.80;;;;;19.90;96048.00;;;;5135621;27;20563;-61
2023/08/15 05:20:03;;;;;;;0.77;0.77;;;;;19.90;96048.00;;;;5135590;27;20189;-61
2023/08/15 05:22:31;;;;;;;0.50;0.50;;;;;19.70;96044.00;;;;5135490;27;20200;-62
2023/08/15 05:24:59;;;;;;;1.00;1.00;;;;;19.80;96049.00;;;;5135352;27;20200;-61
2023/08/15 05:27:27;;;;;;;0.60;0.60;;;;;19.90;96043.00;;;;5135285;27;20205;-61
2023/08/15 05:29:54;;;;;;;1.20;1.20;;;;;19.90;96038.00;;;;5135447;27;20197;-61
2023/08/15 05:32:22;;;;;;;1.30;1.30;;;;;20.00;96045.00;;;;5135353;27;20535;-61
2023/08/15 05:34:49;;;;;;;1.73;1.33;;;;;20.10;96041.00;;;;5135238;27;20193;-61
2023/08/15 05:37:17;;;;;;;0.90;0.90;;;;;20.10;96052.00;;;;5135133;27;20254;-61
2023/08/15 05:39:44;;;;;;;0.90;0.90;;;;;20.10;96052.00;;;;5135154;27;20213;-62
2023/08/15 05:42:17;;;;;;;0.90;0.90;;;;;20.20;96059.00;;;;5134968;27;20197;-61
2023/08/15 05:44:45;;;;;;;1.30;1.30;;;;;20.20;96060.00;;;;5135035;27;20182;-61
2023/08/15 05:47:13;;;;;;;1.63;1.53;;;;;20.20;96054.00;;;;5134922;27;20210;-62
2023/08/15 05:49:41;;;;;;;1.23;1.23;;;;;20.30;96053.00;;;;5133614;27;20201;-62
2023/08/15 05:52:08;;;;;;;2.37;1.50;;;;;20.40;96055.00;;;;5135095;27;20212;-62
2023/08/15 05:54:36;;;;;;;1.20;1.20;;;;;20.40;96060.00;;;;5134717;27;20197;-62
2023/08/15 05:57:03;;;;;;;0.97;0.97;;;;;20.60;96057.00;;;;5134693;27;20228;-62
2023/08/15 05:59:32;;;;;;;1.97;1.87;;;;;20.70;96067.00;;;;5133542;27;20193;-61
2023/08/15 06:02:00;;;;;;;1.57;1.47;;;;;20.80;96063.00;;;;5134699;27;20212;-62
2023/08/15 06:04:27;;;;;;;1.17;1.13;;;;;20.90;96059.00;;;;5134719;27;20211;-62
2023/08/15 06:06:55;;;;;;;1.13;1.13;;;;;20.90;96061.00;;;;5134565;27;20205;-61
2023/08/15 06:09:22;;;;;;;0.93;0.93;;;;;21.00;96051.00;;;;5134713;27;20193;-61
2023/08/15 06:11:50;;;;;;;0.97;0.97;;;;;21.10;96055.00;;;;5134628;27;20185;-61
2023/08/15 06:14:19;;;;;;;1.83;1.73;;;;;21.30;96060.00;;;;5134430;27;20193;-61
2023/08/15 06:16:48;;;;;;;1.80;1.70;;;;;21.10;96055.00;;;;5133232;27;20225;-61
2023/08/15 06:19:16;;;;;;;1.35;1.35;;;;;21.20;96067.00;;;;5134283;27;20203;-62
2023/08/15 06:21:43;;;;;;;1.42;1.35;;;;;21.10;96069.00;;;;5127269;27;20209;-61
2023/08/15 06:24:11;;;;;;;1.65;1.55;;;;;21.20;96073.00;;;;5130948;27;20197;-62
2023/08/15 06:26:40;;;;;;;1.20;1.20;;;;;21.20;96083.00;;;;5131618;27;20213;-60
2023/08/15 06:29:08;;;;;;;2.47;1.45;;;;;21.30;96098.00;;;;5132323;27;20534;-60
2023/08/15 06:31:36;;;;;;;0.90;0.90;;;;;21.50;96088.00;;;;5132689;27;20197;-61
2023/08/15 06:34:05;;;;;;;0.90;0.90;;;;;21.60;96089.00;;;;5132505;27;20189;-59
2023/08/15 06:36:34;;;;;;;0.73;0.73;;;;;21.60;96087.00;;;;5132703;27;20213;-59
2023/08/15 06:39:01;;;;;;;1.40;1.35;;;;;21.70;96086.00;;;;5130942;27;20280;-59
2023/08/15 06:41:28;;;;;;;1.95;1.85;;;;;21.90;96087.00;;;;5132298;27;20193;-59
2023/08/15 06:43:56;;;;;;;1.05;1.05;;;;;22.00;96092.00;;;;5132249;27;20655;-59
2023/08/15 06:46:23;;;;;;;1.95;1.85;;;;;22.00;96085.00;;;;5131429;27;20586;-58
2023/08/15 06:48:51;;;;;;;0.80;0.80;;;;;22.10;96102.00;;;;5132438;28;20201;-60
2023/08/15 06:51:20;;;;;;;0.90;0.90;;;;;22.10;96101.00;;;;5131814;28;20196;-59
2023/08/15 06:53:50;;;;;;;0.95;0.95;;;;;22.00;96110.00;;;;5132384;28;20224;-59
2023/08/15 06:56:17;;;;;;;0.82;0.82;;;;;21.90;96109.00;;;;5132226;28;20213;-59
2023/08/15 06:58:44;;;;;;;1.55;1.45;;;;;21.90;96108.00;;;;5132312;28;20277;-59
2023/08/15 07:01:13;;;;;;;1.73;1.63;;;;;21.80;96106.00;;;;5132345;28;20205;-59
2023/08/15 07:03:40;;;;;;;1.42;1.33;;;;;21.70;96115.00;;;;5130657;28;20235;-59
2023/08/15 07:06:07;;;;;;;1.98;1.88;;;;;21.80;96122.00;;;;5132234;28;20213;-59
2023/08/15 07:08:38;;;;;;;1.15;1.15;;;;;21.90;96129.00;;;;5132224;28;20196;-59
2023/08/15 07:11:05;;;;;;;2.28;2.17;;;;;22.00;96125.00;;;;5132135;28;20250;-59
2023/08/15 07:13:33;;;;;;;1.40;1.30;;;;;22.10;96127.00;;;;5132097;28;20556;-58
2023/08/15 07:16:00;;;;;;;1.05;1.05;;;;;22.10;96128.00;;;;5132312;28;20323;-59
2023/08/15 07:18:27;;;;;;;0.77;0.77;;;;;22.10;96130.00;;;;5131944;28;20202;-59
2023/08/15 07:20:55;;;;;;;0.95;0.95;;;;;22.20;96128.00;;;;5131708;28;20284;-61
2023/08/15 07:23:23;;;;;;;1.48;1.38;;;;;22.30;96120.00;;;;5131153;28;20201;-60
2023/08/15 07:25:51;;;;;;;2.38;2.03;;;;;22.40;96111.00;;;;5130446;28;20201;-59
2023/08/15 07:28:19;;;;;;;1.17;1.17;;;;;22.50;96114.00;;;;5132211;27;20197;-59
2023/08/15 07:30:48;;;;;;;1.42;1.23;;;;;22.60;96115.00;;;;5135842;27;20210;-60
2023/08/15 07:33:16;;;;;;;2.03;1.92;;;;;22.80;96116.00;;;;5136049;27;20254;-60
2023/08/15 07:35:43;;;;;;;1.55;1.45;;;;;22.70;96118.00;;;;5135712;27;20722;-59
2023/08/15 07:38:11;;;;;;;0.88;0.88;;;;;22.80;96119.00;;;;5135007;27;20213;-58
2023/08/15 07:40:38;;;;;;;1.15;1.15;;;;;22.80;96121.00;;;;5135716;27;20197;-58
2023/08/15 07:43:07;;;;;;;1.55;1.45;;;;;22.80;96132.00;;;;5134908;27;20193;-60
2023/08/15 07:45:34;;;;;;;1.45;1.42;;;;;22.70;96129.00;;;;5133696;27;20193;-58
2023/08/15 07:48:02;;;;;;;2.05;1.83;;;;;22.50;96131.00;;;;5135771;27;20194;-60
2023/08/15 07:50:30;;;;;;;1.60;1.50;;;;;22.70;96113.00;;;;5134962;27;20197;-58
2023/08/15 07:52:59;;;;;;;1.73;1.63;;;;;23.00;96109.00;;;;5136062;27;20220;-60
2023/08/15 07:55:30;;;;;;;1.10;1.10;;;;;23.10;96105.00;;;;5134993;27;20208;-60
2023/08/15 07:57:57;;;;;;;1.88;1.73;;;;;23.30;96110.00;;;;5135546;27;20221;-59
2023/08/15 08:00:27;;;;;;;1.33;1.33;;;;;23.40;96112.00;;;;5134786;27;20653;-59
2023/08/15 08:02:54;;;;;;;1.10;1.10;;;;;23.50;96114.00;;;;5135513;27;20222;-60
2023/08/15 08:05:22;;;;;;;1.23;1.17;;;;;23.60;96118.00;;;;5134561;27;20213;-60
2023/08/15 08:07:49;;;;;;;1.83;1.73;;;;;23.70;96114.00;;;;5135537;27;20209;-61
2023/08/15 08:10:16;;;;;;;2.65;1.83;;;;;23.80;96125.00;;;;5134928;27;20553;-60
2023/08/15 08:12:45;;;;;;;11.32;1.75;;;;;23.80;96106.00;;;;5135602;27;20185;-60
2023/08/15 08:15:13;;;;;;;1.50;1.40;;;;;24.00;96110.00;;;;5134662;27;20225;-59
2023/08/15 08:17:42;;;;;;;1.35;1.35;;;;;24.20;96122.00;;;;5133606;27;20225;-59
2023/08/15 08:20:12;;;;;;;1.50;1.40;;;;;24.20;96125.00;;;;5133924;27;20189;-59
2023/08/15 08:22:39;;;;;;;1.20;1.20;;;;;24.40;96132.00;;;;5134992;27;20254;-60
2023/08/15 08:25:14;;;;;;;1.42;1.30;;;;;24.50;96138.00;;;;5135155;27;20205;-59
2023/08/15 08:27:42;;;;;;;1.73;1.63;;;;;24.30;96127.00;;;;5130590;27;20204;-59
2023/08/15 08:30:11;;;;;;;2.28;1.20;;;;;24.60;96125.00;;;;5134842;27;20205;-60
2023/08/15 08:32:38;;;;;;;1.08;1.08;;;;;24.70;96119.00;;;;5134657;27;20680;-59
2023/08/15 08:35:08;;;;;;;1.30;1.30;;;;;24.60;96116.00;;;;5134887;27;20219;-60
2023/08/15 08:37:35;;;;;;;1.42;1.33;;;;;24.50;96117.00;;;;5134884;27;20633;-59
2023/08/15 08:40:04;;;;;;;1.33;1.30;;;;;24.40;96109.00;;;;5134597;27;20204;-59
2023/08/15 08:42:32;;;;;;;1.48;1.38;;;;;24.50;96118.00;;;;5134151;27;20203;-59
2023/08/15 08:45:01;;;;;;;1.27;0.90;;;;;24.50;96119.00;;;;5134789;27;20197;-60
2023/08/15 08:47:31;;;;;;;1.45;1.35;;;;;24.50;96120.00;;;;5134505;27;20239;-59
2023/08/15 08:50:00;;;;;;;1.20;1.10;;;;;24.40;96121.00;;;;5134628;27;20193;-59
2023/08/15 08:52:30;;;;;;;2.95;1.50;;;;;24.40;96122.00;;;;5134514;27;20295;-59
2023/08/15 08:54:58;;;;;;;1.75;1.65;;;;;24.40;96119.00;;;;5134380;27;20201;-59
2023/08/15 08:57:29;;;;;;;1.02;1.00;;;;;24.50;96133.00;;;;5134206;27;20683;-59
2023/08/15 08:59:58;;;;;;;1.10;1.10;;;;;24.70;96135.00;;;;5134001;27;20270;-60
2023/08/15 09:02:25;;;;;;;0.93;0.93;;;;;24.80;96136.00;;;;5134623;27;20283;-60
2023/08/15 09:04:53;;;;;;;1.30;1.25;;;;;24.80;96137.00;;;;5133768;27;20602;-59
2023/08/15 09:07:21;;;;;;;0.93;0.93;;;;;24.90;96144.00;;;;5134411;27;20245;-60
2023/08/15 09:09:49;;;;;;;1.58;1.48;;;;;24.80;96142.00;;;;5133605;27;20193;-59
2023/08/15 09:12:32;;;;;;;0.85;0.85;;;;;24.90;96151.00;;;;5134250;27;20194;-60
2023/08/15 09:15:00;;;;;;;0.93;0.93;;;;;25.00;96148.00;;;;5130340;27;20197;-60
2023/08/15 09:17:27;;;;;;;2.47;1.05;;;;;25.20;96134.00;;;;5134341;27;20277;-61
2023/08/15 09:19:55;;;;;;;0.55;0.55;;;;;25.50;96134.00;;;;5133779;27;20684;-60
2023/08/15 09:22:23;;;;;;;1.40;1.27;;;;;25.70;96138.00;;;;5129855;27;20193;-60
2023/08/15 09:24:52;;;;;;;27.48;2.10;;;;;25.60;96130.00;;;;5133438;27;20208;-59
2023/08/15 09:27:20;;;;;;;1.30;1.27;;;;;25.40;96130.00;;;;5133935;27;20209;-59
2023/08/15 09:29:47;;;;;;;0.95;0.95;;;;;25.30;96149.00;;;;5133850;27;20190;-59
2023/08/15 09:32:15;;;;;;;1.23;1.17;;;;;25.00;96143.00;;;;5133476;27;20575;-59
2023/08/15 09:34:42;;;;;;;1.00;1.00;;;;;24.90;96139.00;;;;5133688;27;20189;-59
2023/08/15 09:37:10;;;;;;;0.90;0.90;;;;;25.00;96142.00;;;;5133552;27;20297;-59
2023/08/15 09:39:39;;;;;;;1.45;1.35;;;;;25.20;96131.00;;;;5133647;27;20204;-59
2023/08/15 09:42:08;;;;;;;1.85;1.75;;;;;25.20;96141.00;;;;5133600;27;20226;-59
2023/08/15 09:44:37;;;;;;;1.48;1.38;;;;;25.50;96149.00;;;;5133494;27;20197;-60
2023/08/15 09:47:07;;;;;;;0.68;0.68;;;;;25.40;96147.00;;;;5133133;27;20205;-59
2023/08/15 09:49:35;;;;;;;1.27;1.27;;;;;25.20;96153.00;;;;5133289;27;20205;-59
2023/08/15 09:52:04;;;;;;;0.90;0.90;;;;;25.30;96159.00;;;;5132878;27;20205;-60
2023/08/15 09:54:32;;;;;;;0.98;0.98;;;;;25.20;96160.00;;;;5133267;27;20204;-61
2023/08/15 09:57:00;;;;;;;0.80;0.80;;;;;25.20;96159.00;;;;5130873;27;20228;-59
2023/08/15 09:59:29;;;;;;;1.42;1.33;;;;;25.10;96166.00;;;;5133729;27;20277;-60
2023/08/15 10:01:57;;;;;;;1.17;1.10;;;;;25.20;96170.00;;;;5132611;27;20190;-60
2023/08/15 10:04:28;;;;;;;1.33;1.23;;;;;24.90;96175.00;;;;5133129;27;20315;-60
2023/08/15 10:06:56;;;;;;;0.70;0.70;;;;;24.90;96183.00;;;;5132822;27;20219;-60
2023/08/15 10:09:24;;;;;;;1.88;1.35;;;;;24.80;96179.00;;;;5133008;27;20258;-60
2023/08/15 10:11:52;;;;;;;0.50;0.50;;;;;24.90;96179.00;;;;5131385;27;20228;-59
2023/08/15 10:14:21;;;;;;;1.02;1.02;;;;;25.20;96188.00;;;;5133068;27;20258;-60
2023/08/15 10:16:51;;;;;;;1.75;0.80;;;;;25.40;96179.00;;;;5131064;27;20217;-60
2023/08/15 10:19:18;;;;;;;4.03;1.02;;;;;25.50;96176.00;;;;5132541;27;20201;-61
2023/08/15 10:21:50;;;;;;;0.82;0.82;;;;;26.00;96184.00;;;;5132784;27;20563;-61
2023/08/15 10:24:17;;;;;;;1.02;1.02;;;;;25.90;96184.00;;;;5128085;27;20242;-61
2023/08/15 10:26:45;;;;;;;6.45;1.15;;;;;25.60;96181.00;;;;5132796;27;20219;-62
2023/08/15 10:29:13;;;;;;;0.40;0.40;;;;;25.40;96205.00;;;;5132757;27;20181;-64
2023/08/15 10:31:41;;;;;;;1.52;1.42;;;;;25.40;96181.00;;;;5132468;27;20205;-62
2023/08/15 10:34:11;;;;;;;0.88;0.88;;;;;26.20;96185.00;;;;5131183;27;20193;-64
2023/08/15 10:36:42;;;;;;;0.70;0.70;;;;;26.60;96201.00;;;;5132385;27;20598;-58
2023/08/15 10:39:10;;;;;;;1.23;1.20;;;;;26.50;96200.00;;;;5132396;27;20262;-61
2023/08/15 10:41:38;;;;;;;0.70;0.70;;;;;26.70;96200.00;;;;5131376;27;20338;-60
2023/08/15 10:44:08;;;;;;;0.80;0.80;;;;;26.50;96196.00;;;;5132327;27;20196;-60
2023/08/15 10:46:36;;;;;;;1.23;1.23;;;;;26.50;96200.00;;;;5132232;27;20211;-59
2023/08/15 10:49:08;;;;;;;0.93;0.93;;;;;26.60;96191.00;;;;5132046;28;20687;-59
2023/08/15 10:51:38;;;;;;;0.60;0.60;;;;;26.90;96189.00;;;;5132670;28;20301;-60
2023/08/15 10:54:09;;;;;;;0.70;0.70;;;;;26.70;96179.00;;;;5131796;28;20608;-60
2023/08/15 10:56:38;;;;;;;1.95;1.63;;;;;27.10;96177.00;;;;5132269;28;20686;-59
2023/08/15 10:59:08;;;;;;;0.70;0.70;;;;;27.00;96198.00;;;;5131816;28;20217;-60
2023/08/15 11:01:37;;;;;;;2.28;1.05;;;;;27.30;96199.00;;;;5133467;28;20193;-60
2023/08/15 11:04:08;;;;;;;1.00;1.00;;;;;26.60;96212.00;;;;5133542;27;20205;-60
2023/08/15 11:06:45;;;;;;;0.47;0.47;;;;;26.80;96189.00;;;;5132050;27;20269;-59
2023/08/15 11:09:13;;;;;;;0.88;0.88;;;;;26.70;96184.00;;;;5135932;27;20268;-61
2023/08/15 11:11:41;;;;;;;0.80;0.80;;;;;26.80;96212.00;;;;5136236;27;20197;-59
2023/08/15 11:14:17;;;;;;;1.75;0.68;;;;;26.70;96203.00;;;;5135626;27;20204;-61
2023/08/15 11:16:44;;;;;;;0.82;0.82;;;;;26.80;96195.00;;;;5136742;27;20248;-59
2023/08/15 11:19:14;;;;;;;0.70;0.70;;;;;27.10;96184.00;;;;5135643;27;20220;-59
2023/08/15 11:21:43;;;;;;;1.63;1.52;;;;;27.40;96189.00;;;;5136373;27;20201;-60
2023/08/15 11:24:11;;;;;;;0.77;0.77;;;;;27.30;96201.00;;;;5135969;27;20196;-61
2023/08/15 11:26:40;;;;;;;0.88;0.88;;;;;26.70;96183.00;;;;5136071;27;20217;-59
2023/08/15 11:29:08;;;;;;;0.68;0.68;;;;;26.90;96199.00;;;;5135632;27;20216;-59
2023/08/15 11:31:36;;;;;;;1.08;1.08;;;;;27.30;96200.00;;;;5136231;27;20199;-59
2023/08/15 11:34:05;;;;;;;0.90;0.90;;;;;27.00;96199.00;;;;5135481;27;20279;-59
2023/08/15 11:36:32;;;;;;;1.08;1.08;;;;;27.20;96198.00;;;;5135780;27;20281;-59
2023/08/15 11:39:03;;;;;;;1.08;1.08;;;;;27.60;96191.00;;;;5135393;27;20212;-59
2023/08/15 11:41:30;;;;;;;1.02;0.95;;;;;27.70;96219.00;;;;5135857;27;20190;-60
2023/08/15 11:43:58;;;;;;;1.00;1.00;;;;;27.20;96198.00;;;;5135597;27;20213;-60
2023/08/15 11:46:28;;;;;;;0.60;0.60;;;;;26.90;96210.00;;;;5135825;27;20292;-60
2023/08/15 11:48:56;;;;;;;1.38;1.27;;;;;27.30;96181.00;;;;5135768;27;20198;-61
2023/08/15 11:51:23;;;;;;;2.17;1.55;;;;;27.50;96181.00;;;;5136272;27;20204;-60
2023/08/15 11:53:51;;;;;;;0.80;0.80;;;;;27.50;96176.00;;;;5135320;27;20193;-60
2023/08/15 11:56:20;;;;;;;0.50;0.50;;;;;27.60;96171.00;;;;5131483;27;20209;-60
2023/08/15 11:58:48;;;;;;;0.85;0.85;;;;;28.30;96178.00;;;;5135477;27;20213;-60
2023/08/15 12:01:15;;;;;;;0.98;0.85;;;;;28.60;96177.00;;;;5134015;27;20193;-60
2023/08/15 12:03:43;;;;;;;1.42;1.33;;;;;28.70;96180.00;;;;5135306;27;20209;-59
2023/08/15 12:06:12;;;;;;;1.42;1.10;;;;;28.80;96183.00;;;;5135611;27;20213;-60
2023/08/15 12:08:43;;;;;;;0.82;0.82;;;;;29.20;96175.00;;;;5135068;27;20272;-60
2023/08/15 12:11:10;;;;;;;1.23;1.13;;;;;30.10;96174.00;;;;5135433;27;20231;-60
2023/08/15 12:13:41;;;;;;;0.98;0.98;;;;;29.40;96203.00;;;;5135052;27;20604;-60
2023/08/15 12:16:09;;;;;;;0.68;0.68;;;;;28.50;96209.00;;;;5134879;27;20213;-59
2023/08/15 12:18:39;;;;;;;0.80;0.80;;;;;28.40;96195.00;;;;5135010;27;20213;-61
2023/08/15 12:21:07;;;;;;;1.08;1.08;;;;;29.10;96197.00;;;;5132093;27;20197;-60
2023/08/15 12:23:34;;;;;;;1.05;1.00;;;;;29.40;96200.00;;;;5135017;27;20269;-60